createdAt,value
2018-11-27T00:00:58.514Z,93937.12
2018-11-27T00:03:25.770Z,93940.77
2018-11-27T00:05:51.190Z,93941.03
2018-11-27T00:08:17.525Z,93950.00
2018-11-27T00:10:43.888Z,93958.98
2018-11-27T00:13:10.271Z,93962.84
2018-11-27T00:15:36.608Z,93967.27
2018-11-27T00:18:02.943Z,93971.61
2018-11-27T00:20:29.339Z,93968.78
2018-11-27T00:22:55.744Z,93973.00
2018-11-27T00:25:22.098Z,93978.04
2018-11-27T00:27:48.436Z,93976.44
2018-11-27T00:30:14.792Z,93975.36
2018-11-27T00:32:41.133Z,93983.31
2018-11-27T00:35:07.474Z,93989.02
2018-11-27T00:37:33.860Z,93992.41
2018-11-27T00:40:00.126Z,93988.70
2018-11-27T00:42:26.445Z,93984.71
2018-11-27T00:44:52.774Z,94000.97
2018-11-27T00:47:19.152Z,93992.10
2018-11-27T00:49:45.505Z,93990.97
2018-11-27T00:52:11.864Z,93990.75
2018-11-27T00:54:38.214Z,93991.94
2018-11-27T00:57:04.556Z,94003.58
2018-11-27T00:59:30.955Z,94000.70
2018-11-27T01:01:57.289Z,94001.48
2018-11-27T01:04:23.607Z,93998.67
2018-11-27T01:06:49.996Z,94008.39
2018-11-27T01:09:16.340Z,94008.05
2018-11-27T01:11:42.771Z,94009.08
2018-11-27T01:14:09.098Z,94005.69
2018-11-27T01:16:35.453Z,93998.14
2018-11-27T01:19:01.825Z,94002.45
2018-11-27T01:21:28.210Z,94008.14
2018-11-27T01:23:54.590Z,94010.14
2018-11-27T01:26:20.924Z,94005.95
2018-11-27T01:28:47.265Z,94006.05
2018-11-27T01:31:13.600Z,93998.14
2018-11-27T01:33:39.980Z,93997.79
2018-11-27T01:36:06.310Z,94007.90
2018-11-27T01:38:32.646Z,94006.41
2018-11-27T01:40:58.997Z,94007.48
2018-11-27T01:43:25.417Z,94001.44
2018-11-27T01:45:51.760Z,93997.38
2018-11-27T01:48:18.147Z,93996.24
2018-11-27T01:50:44.486Z,93993.89
2018-11-27T01:53:10.815Z,93989.22
2018-11-27T01:55:37.162Z,93988.41
2018-11-27T01:58:03.513Z,93987.02
2018-11-27T02:00:29.923Z,93983.08
2018-11-27T02:02:56.312Z,93982.04
2018-11-27T02:05:22.596Z,93985.02
2018-11-27T02:07:48.983Z,93983.73
2018-11-27T02:10:15.314Z,93985.20
2018-11-27T02:12:41.654Z,93983.81
2018-11-27T02:15:08.088Z,93985.56
2018-11-27T02:17:34.420Z,93989.76
2018-11-27T02:20:00.758Z,93986.73
2018-11-27T02:22:27.103Z,93984.70
2018-11-27T02:24:53.512Z,93984.48
2018-11-27T02:27:19.884Z,93976.20
2018-11-27T02:29:46.213Z,93970.61
2018-11-27T02:32:12.545Z,93966.61
2018-11-27T02:34:38.933Z,93971.70
2018-11-27T02:37:05.298Z,93967.45
2018-11-27T02:39:31.698Z,93974.34
2018-11-27T02:41:58.039Z,93973.73
2018-11-27T02:44:27.236Z,93978.45
2018-11-27T02:46:53.618Z,93986.72
2018-11-27T02:49:19.958Z,93986.66
2018-11-27T02:51:46.365Z,93986.65
2018-11-27T02:54:12.691Z,93983.11
2018-11-27T02:56:39.105Z,93984.13
2018-11-27T02:59:05.518Z,93980.84
2018-11-27T03:01:31.818Z,93979.83
2018-11-27T03:04:00.417Z,93980.95
2018-11-27T03:06:26.744Z,93986.38
2018-11-27T03:08:53.124Z,93990.48
2018-11-27T03:11:19.463Z,93988.73
2018-11-27T03:13:45.793Z,93990.52
2018-11-27T03:16:12.170Z,93991.70
2018-11-27T03:18:38.528Z,93985.27
2018-11-27T03:21:04.869Z,93992.09
2018-11-27T03:23:31.256Z,93987.16
2018-11-27T03:25:57.624Z,93986.38
2018-11-27T03:28:24.000Z,93980.84
2018-11-27T03:30:50.368Z,93985.56
2018-11-27T03:33:16.679Z,93983.52
2018-11-27T03:35:43.054Z,93985.73
2018-11-27T03:38:09.499Z,93980.98
2018-11-27T03:40:35.879Z,93984.66
2018-11-27T03:43:02.172Z,93978.67
2018-11-27T03:45:28.484Z,93959.95
2018-11-27T03:47:54.839Z,93955.14
2018-11-27T03:50:21.221Z,93955.69
2018-11-27T03:52:47.556Z,93951.25
2018-11-27T03:55:13.881Z,93958.89
2018-11-27T03:57:41.324Z,93964.31
2018-11-27T04:00:06.580Z,93957.16
2018-11-27T04:02:33.005Z,93963.39
2018-11-27T04:04:59.302Z,93972.39
2018-11-27T04:07:25.631Z,93975.16
2018-11-27T04:09:52.005Z,93984.89
2018-11-27T04:12:18.330Z,93983.81
2018-11-27T04:14:44.733Z,93991.05
2018-11-27T04:17:11.085Z,93999.97
2018-11-27T04:19:37.420Z,94007.17
2018-11-27T04:22:03.765Z,93999.31
2018-11-27T04:24:30.275Z,93992.41
2018-11-27T04:26:56.627Z,93991.52
2018-11-27T04:29:22.973Z,93990.59
2018-11-27T04:31:49.332Z,94000.40
2018-11-27T04:34:15.665Z,93996.66
2018-11-27T04:36:42.034Z,94001.06
2018-11-27T04:39:08.332Z,93997.67
2018-11-27T04:41:34.678Z,93997.91
2018-11-27T04:44:01.042Z,94005.03
2018-11-27T04:46:28.511Z,94015.38
2018-11-27T04:48:53.762Z,94014.57
2018-11-27T04:51:20.085Z,94019.55
2018-11-27T04:53:46.431Z,94025.20
2018-11-27T04:56:12.834Z,94026.80
2018-11-27T04:58:39.176Z,94029.45
2018-11-27T05:01:05.646Z,94031.28
2018-11-27T05:03:31.981Z,94025.31
2018-11-27T05:05:58.331Z,94012.66
2018-11-27T05:08:24.671Z,94018.89
2018-11-27T05:10:51.068Z,94024.58
2018-11-27T05:13:17.416Z,94023.17
2018-11-27T05:15:43.840Z,94022.89
2018-11-27T05:18:10.230Z,94020.86
2018-11-27T05:20:36.604Z,94018.06
2018-11-27T05:23:02.953Z,94020.24
2018-11-27T05:25:29.349Z,94020.91
2018-11-27T05:27:55.630Z,94013.66
2018-11-27T05:30:22.016Z,94005.82
2018-11-27T05:32:48.364Z,94005.82
2018-11-27T05:35:14.720Z,94007.92
2018-11-27T05:37:41.047Z,94004.06
2018-11-27T05:40:07.390Z,94012.44
2018-11-27T05:42:33.759Z,94023.62
2018-11-27T05:45:00.201Z,94014.27
2018-11-27T05:47:26.546Z,94009.31
2018-11-27T05:49:52.887Z,94012.23
2018-11-27T05:52:19.220Z,94020.07
2018-11-27T05:54:45.609Z,94014.06
2018-11-27T05:57:11.957Z,94004.59
2018-11-27T05:59:38.285Z,94008.70
2018-11-27T06:02:04.645Z,94012.56
2018-11-27T06:04:31.135Z,94012.41
2018-11-27T06:06:57.421Z,94009.04
2018-11-27T06:09:23.749Z,94013.38
2018-11-27T06:11:50.238Z,94029.84
2018-11-27T06:14:16.598Z,94034.08
2018-11-27T06:16:43.018Z,94031.39
2018-11-27T06:19:09.358Z,94025.02
2018-11-27T06:21:35.685Z,94021.86
2018-11-27T06:24:02.021Z,94020.05
2018-11-27T06:26:28.375Z,94011.27
2018-11-27T06:28:54.780Z,94017.13
2018-11-27T06:31:21.196Z,94011.23
2018-11-27T06:33:47.535Z,94016.76
2018-11-27T06:36:13.894Z,94012.42
2018-11-27T06:38:40.244Z,94027.77
2018-11-27T06:41:06.640Z,94029.31
2018-11-27T06:43:33.040Z,94026.11
2018-11-27T06:45:59.380Z,94030.03
2018-11-27T06:48:25.804Z,94029.66
2018-11-27T06:50:52.202Z,94021.08
2018-11-27T06:53:18.627Z,94023.19
2018-11-27T06:55:44.959Z,94010.87
2018-11-27T06:58:11.308Z,94011.88
2018-11-27T07:00:37.690Z,94004.59
2018-11-27T07:03:04.010Z,93996.76
2018-11-27T07:05:30.452Z,93989.71
2018-11-27T07:07:56.806Z,93990.23
2018-11-27T07:10:23.189Z,93985.33
2018-11-27T07:12:49.640Z,93985.67
2018-11-27T07:15:16.059Z,93991.09
2018-11-27T07:17:42.470Z,93988.09
2018-11-27T07:20:08.909Z,93992.08
2018-11-27T07:22:35.264Z,93995.52
2018-11-27T07:25:01.646Z,94003.48
2018-11-27T07:27:27.959Z,94001.59
2018-11-27T07:29:54.285Z,93998.20
2018-11-27T07:32:20.662Z,93996.00
2018-11-27T07:34:46.978Z,93995.37
2018-11-27T07:37:13.361Z,93996.20
2018-11-27T07:39:39.692Z,94001.69
2018-11-27T07:42:06.091Z,93998.77
2018-11-27T07:44:32.517Z,93998.43
2018-11-27T07:46:58.969Z,93995.20
2018-11-27T07:49:25.315Z,93990.38
2018-11-27T07:51:51.688Z,93990.04
2018-11-27T07:54:18.065Z,93992.91
2018-11-27T07:56:44.501Z,93991.84
2018-11-27T07:59:10.848Z,93997.69
2018-11-27T08:01:37.195Z,93996.50
2018-11-27T08:04:03.605Z,93997.23
2018-11-27T08:06:30.153Z,94002.63
2018-11-27T08:08:56.484Z,93996.19
2018-11-27T08:11:22.875Z,94002.13
2018-11-27T08:13:49.281Z,93999.84
2018-11-27T08:16:17.802Z,93993.61
2018-11-27T08:18:44.324Z,93990.48
2018-11-27T08:21:10.677Z,93995.03
2018-11-27T08:23:37.215Z,93989.06
2018-11-27T08:26:03.645Z,93986.32
2018-11-27T08:28:29.989Z,93993.37
2018-11-27T08:30:56.378Z,93997.63
2018-11-27T08:33:22.826Z,94000.20
2018-11-27T08:35:49.428Z,94004.45
2018-11-27T08:38:18.008Z,94004.71
2018-11-27T08:40:44.417Z,94001.41
2018-11-27T08:43:10.762Z,94005.36
2018-11-27T08:45:37.275Z,94000.50
2018-11-27T08:48:03.607Z,93999.89
2018-11-27T08:50:29.938Z,94000.67
2018-11-27T08:52:56.650Z,93998.70
2018-11-27T08:55:23.540Z,94006.51
2018-11-27T08:57:49.903Z,94010.22
2018-11-27T09:00:16.290Z,94007.85
2018-11-27T09:02:42.665Z,94001.10
2018-11-27T09:05:09.029Z,93989.54
2018-11-27T09:07:35.430Z,93983.12
2018-11-27T09:10:01.783Z,93992.67
2018-11-27T09:12:28.317Z,93988.73
2018-11-27T09:14:57.184Z,93977.45
2018-11-27T09:17:23.592Z,93979.85
2018-11-27T09:19:49.945Z,93978.56
2018-11-27T09:22:16.280Z,93975.34
2018-11-27T09:24:42.727Z,93966.66
2018-11-27T09:27:09.159Z,93964.68
2018-11-27T09:29:37.759Z,93960.80
2018-11-27T09:32:04.125Z,93958.02
2018-11-27T09:34:31.680Z,93959.99
2018-11-27T09:36:58.024Z,93959.30
2018-11-27T09:39:24.376Z,93961.68
2018-11-27T09:41:50.778Z,93959.38
2018-11-27T09:44:17.266Z,93954.86
2018-11-27T09:46:43.653Z,93962.32
2018-11-27T09:49:10.067Z,93966.27
2018-11-27T09:51:36.416Z,93969.63
2018-11-27T09:54:02.803Z,93962.08
2018-11-27T09:58:09.870Z,93955.48
2018-11-27T10:00:36.251Z,93959.00
2018-11-27T10:03:02.586Z,93955.40
2018-11-27T10:05:28.996Z,93942.91
2018-11-27T10:07:55.338Z,93932.89
2018-11-27T10:10:21.717Z,93925.15
2018-11-27T10:12:48.050Z,93929.23
2018-11-27T10:15:14.448Z,93935.45
2018-11-27T10:17:40.803Z,93941.92
2018-11-27T10:20:07.153Z,93931.51
2018-11-27T10:22:33.587Z,93932.05
2018-11-27T10:24:59.961Z,93928.72
2018-11-27T10:27:26.274Z,93925.06
2018-11-27T10:29:52.643Z,93934.39
2018-11-27T10:32:18.974Z,93935.18
2018-11-27T10:34:45.335Z,93934.37
2018-11-27T10:37:11.721Z,93943.53
2018-11-27T10:39:38.108Z,93939.56
2018-11-27T10:42:04.647Z,93941.16
2018-11-27T10:44:31.156Z,93945.16
2018-11-27T10:46:57.520Z,93943.13
2018-11-27T10:49:23.943Z,93936.81
2018-11-27T10:51:50.312Z,93938.11
2018-11-27T13:32:00.545Z,93880.33
2018-11-27T13:34:26.881Z,93882.89
2018-11-27T13:36:53.278Z,93885.83
2018-11-27T13:39:19.639Z,93897.11
2018-11-27T13:41:46.007Z,93905.53
2018-11-27T13:44:12.411Z,93904.09
2018-11-27T13:46:38.843Z,93910.05
2018-11-27T13:49:05.195Z,93913.13
2018-11-27T13:51:34.687Z,93911.84
2018-11-27T13:54:01.053Z,93915.17
2018-11-27T13:56:27.395Z,93912.29
2018-11-27T13:58:53.784Z,93909.59
2018-11-27T14:01:20.249Z,93914.11
2018-11-27T14:03:46.771Z,93912.45
2018-11-27T14:06:13.141Z,93914.76
2018-11-27T14:08:39.886Z,93914.28
2018-11-27T14:11:06.280Z,93915.73
2018-11-27T14:13:32.756Z,93924.44
2018-11-27T14:15:59.108Z,93918.80
2018-11-27T14:18:25.437Z,93914.92
2018-11-27T14:20:51.792Z,93917.87
2018-11-27T14:23:18.160Z,93916.24
2018-11-27T14:25:44.530Z,93916.55
2018-11-27T14:28:10.988Z,93913.33
2018-11-27T14:30:37.326Z,93911.36
2018-11-27T14:33:05.760Z,93910.58
2018-11-27T14:35:32.142Z,93905.22
2018-11-27T14:37:58.488Z,93908.14
2018-11-27T14:40:25.180Z,93912.38
2018-11-27T14:42:51.523Z,93917.53
2018-11-27T14:45:18.825Z,93917.22
2018-11-27T14:47:45.180Z,93915.57
2018-11-27T14:50:11.506Z,93922.19
2018-11-27T14:52:37.895Z,93920.59
2018-11-27T14:55:04.429Z,93920.88
2018-11-27T14:57:30.751Z,93913.46
2018-11-27T14:59:58.149Z,93910.10
2018-11-27T15:02:25.037Z,93902.83
2018-11-27T15:04:51.438Z,93899.41
2018-11-27T15:07:17.770Z,93914.56
2018-11-27T15:09:44.228Z,93914.42
2018-11-27T15:12:10.574Z,93915.06
2018-11-27T15:14:36.984Z,93917.93
2018-11-27T15:17:03.362Z,93917.59
2018-11-27T15:19:29.752Z,93919.53
2018-11-27T15:21:56.138Z,93922.61
2018-11-27T15:24:22.537Z,93919.39
2018-11-27T15:26:50.917Z,93923.91
2018-11-27T15:29:17.497Z,93919.53
2018-11-27T15:31:43.868Z,93917.93
2018-11-27T15:34:10.216Z,93919.05
2018-11-27T15:36:37.123Z,93926.42
2018-11-27T15:39:02.943Z,93932.43
2018-11-27T15:41:29.322Z,93931.55
2018-11-27T15:43:55.736Z,93926.22
2018-11-27T15:46:22.179Z,93926.70
2018-11-27T15:48:48.508Z,93928.30
2018-11-27T15:51:14.846Z,93922.48
2018-11-27T15:53:41.250Z,93923.27
2018-11-27T15:56:07.591Z,93929.55
2018-11-27T15:58:33.977Z,93927.88
2018-11-27T16:01:00.357Z,93930.16
2018-11-27T16:03:26.675Z,93928.92
2018-11-27T16:05:53.063Z,93933.23
2018-11-27T16:08:19.532Z,93924.84
2018-11-27T16:10:45.867Z,93918.33
2018-11-27T16:13:12.365Z,93921.24
2018-11-27T16:15:38.571Z,93928.59
2018-11-27T16:18:04.929Z,93920.81
2018-11-27T16:20:31.316Z,93928.29
2018-11-27T16:23:00.186Z,93917.08
2018-11-27T16:25:26.516Z,93917.38
2018-11-27T16:27:52.914Z,93924.90
2018-11-27T16:30:19.400Z,93924.55
2018-11-27T16:32:45.719Z,93923.67
2018-11-27T16:35:12.048Z,93918.66
2018-11-27T16:37:38.444Z,93915.60
2018-11-27T16:40:04.788Z,93923.47
2018-11-27T16:42:31.133Z,93930.84
2018-11-27T16:44:57.467Z,93934.02
2018-11-27T16:47:23.819Z,93926.75
2018-11-27T16:49:50.158Z,93930.48
2018-11-27T16:52:16.563Z,93931.17
2018-11-27T16:54:42.997Z,93926.15
2018-11-27T16:57:09.333Z,93925.61
2018-11-27T16:59:37.523Z,93921.65
2018-11-27T17:02:03.927Z,93925.17
2018-11-27T17:04:30.293Z,93918.66
2018-11-27T17:06:56.634Z,93924.17
2018-11-27T17:09:23.031Z,93923.16
2018-11-27T17:11:49.315Z,93930.09
2018-11-27T17:14:15.683Z,93931.48
2018-11-27T17:16:41.998Z,93929.54
2018-11-27T17:19:08.345Z,93926.28
2018-11-27T17:21:34.718Z,93929.30
2018-11-27T17:24:01.135Z,93919.58
2018-11-27T17:26:27.506Z,93922.76
2018-11-27T17:28:53.836Z,93920.16
2018-11-27T17:31:20.257Z,93921.52
2018-11-27T17:33:46.583Z,93923.09
2018-11-27T17:36:12.929Z,93930.34
2018-11-27T17:38:39.263Z,93937.06
2018-11-27T17:41:05.624Z,93934.14
2018-11-27T17:43:31.954Z,93934.91
2018-11-27T17:45:58.287Z,93936.16
2018-11-27T17:48:24.694Z,93935.60
2018-11-27T17:50:51.042Z,93946.02
2018-11-27T17:53:17.389Z,93939.50
2018-11-27T17:55:43.818Z,93939.34
2018-11-27T17:58:10.146Z,93939.68
2018-11-27T18:00:36.578Z,93932.09
2018-11-27T18:03:02.947Z,93928.61
2018-11-27T18:05:29.272Z,93920.27
2018-11-27T18:07:55.673Z,93924.28
2018-11-27T18:10:21.967Z,93927.63
2018-11-27T18:12:48.327Z,93926.47
2018-11-27T18:15:14.627Z,93926.40
2018-11-27T18:17:40.959Z,93920.28
2018-11-27T18:20:07.398Z,93924.95
2018-11-27T18:22:33.847Z,93922.56
2018-11-27T18:25:00.183Z,93935.13
2018-11-27T18:27:26.545Z,93934.84
2018-11-27T18:29:52.930Z,93933.86
2018-11-27T18:32:19.266Z,93923.09
2018-11-27T18:34:45.698Z,93920.98
2018-11-27T18:37:12.065Z,93918.77
2018-11-27T18:39:38.439Z,93919.23
2018-11-27T18:42:04.713Z,93919.58
2018-11-27T18:44:31.234Z,93927.95
2018-11-27T18:46:57.677Z,93932.27
2018-11-27T18:49:24.023Z,93934.84
2018-11-27T18:51:50.371Z,93932.73
2018-11-27T18:54:16.785Z,93940.30
2018-11-27T18:56:43.118Z,93939.98
2018-11-27T18:59:09.477Z,93931.79
2018-11-27T19:01:35.820Z,93936.94
2018-11-27T19:04:02.174Z,93931.45
2018-11-27T19:06:28.556Z,93934.02
2018-11-27T19:08:54.895Z,93937.06
2018-11-27T19:11:21.240Z,93934.14
2018-11-27T19:13:47.586Z,93934.02
2018-11-27T19:16:13.916Z,93938.53
2018-11-27T19:18:40.292Z,93938.82
2018-11-27T19:21:06.621Z,93939.58
2018-11-27T19:23:32.967Z,93945.20
2018-11-27T19:25:59.293Z,93943.91
2018-11-27T19:28:25.638Z,93942.25
2018-11-27T19:30:51.991Z,93944.92
2018-11-27T19:33:18.321Z,93945.20
2018-11-27T19:35:44.651Z,93945.45
2018-11-27T19:38:11.031Z,93944.83
2018-11-27T19:40:37.312Z,93943.95
2018-11-27T19:43:03.651Z,93940.84
2018-11-27T19:45:29.995Z,93937.61
2018-11-27T19:47:56.330Z,93942.38
2018-11-27T19:50:22.659Z,93945.73
2018-11-27T19:52:49.026Z,93946.36
2018-11-27T19:55:15.355Z,93950.63
2018-11-27T19:57:41.687Z,93944.45
2018-11-27T20:00:08.064Z,93945.02
2018-11-27T20:02:34.415Z,93946.52
2018-11-27T20:05:00.803Z,93942.31
2018-11-27T20:07:27.133Z,93938.80
2018-11-27T20:09:53.477Z,93938.99
2018-11-27T20:12:19.904Z,93931.84
2018-11-27T20:14:46.351Z,93940.02
2018-11-27T20:17:12.719Z,93942.53
2018-11-27T20:19:39.058Z,93948.96
2018-11-27T20:22:05.398Z,93942.41
2018-11-27T20:24:31.741Z,93944.48
2018-11-27T20:26:58.076Z,93947.77
2018-11-27T20:29:24.421Z,93943.97
2018-11-27T20:31:50.767Z,93946.01
2018-11-27T20:34:17.083Z,93946.13
2018-11-27T20:36:43.497Z,93950.05
2018-11-27T20:39:09.850Z,93949.91
2018-11-27T20:41:36.166Z,93948.36
2018-11-27T20:44:02.505Z,93949.33
2018-11-27T20:46:28.851Z,93952.02
2018-11-27T20:48:55.251Z,93958.61
2018-11-27T20:51:21.574Z,93966.58
2018-11-27T20:53:47.965Z,93964.53
2018-11-27T20:56:14.309Z,93961.97
2018-11-27T20:58:40.645Z,93968.20
2018-11-27T21:01:06.966Z,93969.83
2018-11-27T21:03:33.356Z,93969.36
2018-11-27T21:05:59.702Z,93968.39
2018-11-27T21:08:26.153Z,93971.11
2018-11-27T21:10:52.567Z,93964.22
2018-11-27T21:13:18.943Z,93961.78
2018-11-27T21:15:45.272Z,93964.70
2018-11-27T21:18:11.616Z,93960.84
2018-11-27T21:20:37.974Z,93972.27
2018-11-27T21:23:04.304Z,93978.42
2018-11-27T21:25:30.679Z,93966.86
2018-11-27T21:27:57.006Z,93968.03
2018-11-27T21:30:23.354Z,93971.88
2018-11-27T21:32:49.695Z,93984.27
2018-11-27T21:35:16.086Z,93990.62
2018-11-27T21:37:42.470Z,93991.13
2018-11-27T21:40:08.803Z,93985.28
2018-11-27T21:42:35.136Z,93986.81
2018-11-27T21:45:01.459Z,93983.89
2018-11-27T21:47:27.894Z,93982.06
2018-11-27T21:49:54.224Z,93980.70
2018-11-27T21:52:20.608Z,93989.84
2018-11-27T21:54:46.939Z,93989.38
2018-11-27T21:57:13.332Z,93987.94
2018-11-27T21:59:39.683Z,93988.22
2018-11-27T22:02:06.016Z,93986.73
2018-11-27T22:04:32.370Z,93992.80
2018-11-27T22:06:58.694Z,93987.35
2018-11-27T22:09:25.026Z,93992.22
2018-11-27T22:11:51.365Z,93989.42
2018-11-27T22:14:17.694Z,93994.44
2018-11-27T22:16:44.035Z,93999.97
2018-11-27T22:19:13.504Z,94003.35
2018-11-27T22:21:39.824Z,94008.30
2018-11-27T22:24:06.154Z,94009.23
2018-11-27T22:26:32.571Z,94005.25
2018-11-27T22:28:58.967Z,94009.11
2018-11-27T22:31:25.258Z,94011.25
2018-11-27T22:33:51.592Z,94008.22
2018-11-27T22:36:17.923Z,94007.08
2018-11-27T22:38:44.262Z,94010.73
2018-11-27T22:41:10.698Z,94012.69
2018-11-27T22:43:36.979Z,94004.98
2018-11-27T22:46:03.304Z,94001.66
2018-11-27T22:48:29.637Z,94008.40
2018-11-27T22:50:55.984Z,94003.41
2018-11-27T22:53:22.360Z,94001.19
2018-11-27T22:55:48.707Z,93999.20
2018-11-27T22:58:15.056Z,94006.33
2018-11-27T23:00:41.480Z,94007.88
2018-11-27T23:03:07.774Z,94004.06
2018-11-27T23:05:34.159Z,94006.36
2018-11-27T23:08:00.511Z,94006.72
2018-11-27T23:10:26.862Z,94006.98
2018-11-27T23:12:53.195Z,94001.03
2018-11-27T23:15:19.515Z,93995.22
2018-11-27T23:17:45.912Z,93993.59
2018-11-27T23:20:13.438Z,93991.17
2018-11-27T23:22:38.625Z,93992.30
2018-11-27T23:25:04.918Z,93987.52
2018-11-27T23:27:31.240Z,93988.45
2018-11-27T23:29:57.622Z,93988.25
2018-11-27T23:32:23.996Z,93993.77
2018-11-27T23:34:50.321Z,93991.09
2018-11-27T23:37:16.653Z,93988.31
2018-11-27T23:39:43.010Z,93989.11
2018-11-27T23:42:09.422Z,93986.53
2018-11-27T23:44:35.752Z,93983.50
2018-11-27T23:47:02.430Z,93987.77
2018-11-27T23:49:28.780Z,93993.72
2018-11-27T23:51:55.123Z,93994.39
2018-11-27T23:54:21.465Z,93992.55
2018-11-27T23:56:48.882Z,93997.57
2018-11-27T23:59:14.188Z,93998.16
